sensor_id;sensor_type;location;lat;lon;timestamp;P1;durP1;ratioP1;P2;durP2;ratioP2
46753;SDS011;32500;50.620;3.400;2023-08-08T00:02:02;83.28;;;52.05;;
46753;SDS011;32500;50.620;3.400;2023-08-08T00:04:28;82.35;;;52.17;;
46753;SDS011;32500;50.620;3.400;2023-08-08T00:06:53;83.60;;;52.47;;
46753;SDS011;32500;50.620;3.400;2023-08-08T00:09:19;81.38;;;52.00;;
46753;SDS011;32500;50.620;3.400;2023-08-08T00:11:44;81.65;;;52.30;;
46753;SDS011;32500;50.620;3.400;2023-08-08T00:14:10;81.13;;;52.22;;
46753;SDS011;32500;50.620;3.400;2023-08-08T00:16:35;81.43;;;52.22;;
46753;SDS011;32500;50.620;3.400;2023-08-08T00:19:01;81.15;;;52.10;;
46753;SDS011;32500;50.620;3.400;2023-08-08T00:21:28;81.55;;;52.00;;
46753;SDS011;32500;50.620;3.400;2023-08-08T00:23:53;82.38;;;51.95;;
46753;SDS011;32500;50.620;3.400;2023-08-08T00:26:19;83.57;;;52.22;;
46753;SDS011;32500;50.620;3.400;2023-08-08T00:28:44;82.15;;;52.45;;
46753;SDS011;32500;50.620;3.400;2023-08-08T00:31:10;82.45;;;52.30;;
46753;SDS011;32500;50.620;3.400;2023-08-08T00:33:35;82.22;;;52.38;;
46753;SDS011;32500;50.620;3.400;2023-08-08T00:36:01;83.10;;;52.47;;
46753;SDS011;32500;50.620;3.400;2023-08-08T00:38:27;82.18;;;52.40;;
46753;SDS011;32500;50.620;3.400;2023-08-08T00:40:52;83.32;;;52.30;;
46753;SDS011;32500;50.620;3.400;2023-08-08T00:43:18;81.55;;;52.22;;
46753;SDS011;32500;50.620;3.400;2023-08-08T00:45:44;82.32;;;52.33;;
46753;SDS011;32500;50.620;3.400;2023-08-08T00:48:09;84.15;;;52.53;;
46753;SDS011;32500;50.620;3.400;2023-08-08T00:50:36;81.93;;;52.28;;
46753;SDS011;32500;50.620;3.400;2023-08-08T00:53:03;82.57;;;52.22;;
46753;SDS011;32500;50.620;3.400;2023-08-08T00:55:30;83.25;;;52.28;;
46753;SDS011;32500;50.620;3.400;2023-08-08T00:57:56;81.47;;;52.33;;
46753;SDS011;32500;50.620;3.400;2023-08-08T01:00:22;83.15;;;52.40;;
46753;SDS011;32500;50.620;3.400;2023-08-08T01:02:47;83.00;;;52.50;;
46753;SDS011;32500;50.620;3.400;2023-08-08T01:05:13;81.55;;;52.42;;
46753;SDS011;32500;50.620;3.400;2023-08-08T01:10:26;81.55;;;52.72;;
46753;SDS011;32500;50.620;3.400;2023-08-08T01:13:05;83.50;;;52.63;;
46753;SDS011;32500;50.620;3.400;2023-08-08T01:15:35;82.78;;;52.30;;
46753;SDS011;32500;50.620;3.400;2023-08-08T01:18:05;82.13;;;52.63;;
46753;SDS011;32500;50.620;3.400;2023-08-08T01:20:32;82.07;;;52.63;;
46753;SDS011;32500;50.620;3.400;2023-08-08T01:23:13;82.78;;;52.83;;
46753;SDS011;32500;50.620;3.400;2023-08-08T01:25:53;81.65;;;52.42;;
46753;SDS011;32500;50.620;3.400;2023-08-08T01:28:20;81.40;;;52.63;;
46753;SDS011;32500;50.620;3.400;2023-08-08T01:30:50;82.10;;;52.80;;
46753;SDS011;32500;50.620;3.400;2023-08-08T01:33:16;81.93;;;52.45;;
46753;SDS011;32500;50.620;3.400;2023-08-08T01:35:44;82.97;;;52.47;;
46753;SDS011;32500;50.620;3.400;2023-08-08T01:38:31;82.53;;;52.63;;
46753;SDS011;32500;50.620;3.400;2023-08-08T01:41:00;82.78;;;52.53;;
46753;SDS011;32500;50.620;3.400;2023-08-08T01:43:26;82.55;;;52.72;;
46753;SDS011;32500;50.620;3.400;2023-08-08T01:45:53;82.13;;;52.38;;
46753;SDS011;32500;50.620;3.400;2023-08-08T01:48:20;82.47;;;52.53;;
46753;SDS011;32500;50.620;3.400;2023-08-08T01:50:46;81.53;;;52.28;;
46753;SDS011;32500;50.620;3.400;2023-08-08T01:53:11;83.78;;;52.78;;
46753;SDS011;32500;50.620;3.400;2023-08-08T01:55:37;82.50;;;52.42;;
46753;SDS011;32500;50.620;3.400;2023-08-08T01:58:03;83.57;;;52.28;;
46753;SDS011;32500;50.620;3.400;2023-08-08T02:00:28;80.72;;;52.22;;
46753;SDS011;32500;50.620;3.400;2023-08-08T02:02:54;82.30;;;52.65;;
46753;SDS011;32500;50.620;3.400;2023-08-08T02:05:20;83.05;;;52.17;;
46753;SDS011;32500;50.620;3.400;2023-08-08T02:07:45;82.38;;;52.42;;
46753;SDS011;32500;50.620;3.400;2023-08-08T02:10:11;82.90;;;52.50;;
46753;SDS011;32500;50.620;3.400;2023-08-08T02:12:36;81.13;;;52.80;;
46753;SDS011;32500;50.620;3.400;2023-08-08T02:15:02;82.10;;;52.78;;
46753;SDS011;32500;50.620;3.400;2023-08-08T02:17:29;85.35;;;53.00;;
46753;SDS011;32500;50.620;3.400;2023-08-08T02:19:55;82.07;;;52.30;;
46753;SDS011;32500;50.620;3.400;2023-08-08T02:22:22;82.50;;;52.20;;
46753;SDS011;32500;50.620;3.400;2023-08-08T02:24:47;82.15;;;52.33;;
46753;SDS011;32500;50.620;3.400;2023-08-08T02:27:13;82.38;;;52.28;;
46753;SDS011;32500;50.620;3.400;2023-08-08T02:29:39;86.63;;;52.95;;
46753;SDS011;32500;50.620;3.400;2023-08-08T02:32:05;83.00;;;52.47;;
46753;SDS011;32500;50.620;3.400;2023-08-08T02:34:30;84.00;;;52.78;;
46753;SDS011;32500;50.620;3.400;2023-08-08T02:36:56;83.32;;;52.13;;
46753;SDS011;32500;50.620;3.400;2023-08-08T02:39:22;83.25;;;52.65;;
46753;SDS011;32500;50.620;3.400;2023-08-08T02:41:47;81.93;;;52.42;;
46753;SDS011;32500;50.620;3.400;2023-08-08T02:44:13;84.00;;;53.03;;
46753;SDS011;32500;50.620;3.400;2023-08-08T02:46:38;83.82;;;52.30;;
46753;SDS011;32500;50.620;3.400;2023-08-08T02:49:04;84.57;;;52.47;;
46753;SDS011;32500;50.620;3.400;2023-08-08T02:51:30;83.88;;;52.55;;
46753;SDS011;32500;50.620;3.400;2023-08-08T02:53:55;84.68;;;52.55;;
46753;SDS011;32500;50.620;3.400;2023-08-08T02:56:21;82.03;;;52.47;;
46753;SDS011;32500;50.620;3.400;2023-08-08T02:58:47;81.78;;;52.15;;
46753;SDS011;32500;50.620;3.400;2023-08-08T03:01:12;85.68;;;52.72;;
46753;SDS011;32500;50.620;3.400;2023-08-08T03:03:40;81.43;;;52.20;;
46753;SDS011;32500;50.620;3.400;2023-08-08T03:06:05;86.20;;;52.33;;
46753;SDS011;32500;50.620;3.400;2023-08-08T03:08:31;83.07;;;52.70;;
46753;SDS011;32500;50.620;3.400;2023-08-08T03:10:56;84.35;;;52.45;;
46753;SDS011;32500;50.620;3.400;2023-08-08T03:13:22;81.82;;;52.38;;
46753;SDS011;32500;50.620;3.400;2023-08-08T03:15:48;83.72;;;52.58;;
46753;SDS011;32500;50.620;3.400;2023-08-08T03:18:13;81.68;;;52.33;;
46753;SDS011;32500;50.620;3.400;2023-08-08T03:20:39;83.07;;;52.55;;
46753;SDS011;32500;50.620;3.400;2023-08-08T03:23:05;82.15;;;52.22;;
46753;SDS011;32500;50.620;3.400;2023-08-08T03:25:30;82.63;;;52.33;;
46753;SDS011;32500;50.620;3.400;2023-08-08T03:27:56;81.75;;;52.08;;
46753;SDS011;32500;50.620;3.400;2023-08-08T03:30:22;84.03;;;52.47;;
46753;SDS011;32500;50.620;3.400;2023-08-08T03:32:47;83.72;;;52.22;;
46753;SDS011;32500;50.620;3.400;2023-08-08T03:35:13;82.80;;;52.35;;
46753;SDS011;32500;50.620;3.400;2023-08-08T03:37:39;82.60;;;52.15;;
46753;SDS011;32500;50.620;3.400;2023-08-08T03:40:06;81.47;;;52.13;;
46753;SDS011;32500;50.620;3.400;2023-08-08T03:42:32;81.65;;;52.08;;
46753;SDS011;32500;50.620;3.400;2023-08-08T03:44:58;83.72;;;52.17;;
46753;SDS011;32500;50.620;3.400;2023-08-08T03:47:24;81.80;;;52.30;;
46753;SDS011;32500;50.620;3.400;2023-08-08T03:49:50;84.40;;;52.30;;
46753;SDS011;32500;50.620;3.400;2023-08-08T03:52:15;84.22;;;52.53;;
46753;SDS011;32500;50.620;3.400;2023-08-08T03:54:42;81.97;;;52.00;;
46753;SDS011;32500;50.620;3.400;2023-08-08T03:57:08;81.75;;;52.00;;
46753;SDS011;32500;50.620;3.400;2023-08-08T03:59:34;82.78;;;52.10;;
46753;SDS011;32500;50.620;3.400;2023-08-08T04:01:59;82.57;;;52.00;;
46753;SDS011;32500;50.620;3.400;2023-08-08T04:04:25;81.55;;;51.90;;
46753;SDS011;32500;50.620;3.400;2023-08-08T04:06:50;82.63;;;52.05;;
46753;SDS011;32500;50.620;3.400;2023-08-08T04:09:16;81.80;;;52.08;;
46753;SDS011;32500;50.620;3.400;2023-08-08T04:11:41;80.72;;;52.00;;
46753;SDS011;32500;50.620;3.400;2023-08-08T04:14:07;81.28;;;51.85;;
46753;SDS011;32500;50.620;3.400;2023-08-08T04:16:33;81.43;;;52.13;;
46753;SDS011;32500;50.620;3.400;2023-08-08T04:18:58;82.43;;;52.20;;
46753;SDS011;32500;50.620;3.400;2023-08-08T04:21:24;83.30;;;52.33;;
46753;SDS011;32500;50.620;3.400;2023-08-08T04:23:52;80.70;;;52.03;;
46753;SDS011;32500;50.620;3.400;2023-08-08T04:26:18;82.63;;;51.90;;
46753;SDS011;32500;50.620;3.400;2023-08-08T04:28:43;83.43;;;52.45;;
46753;SDS011;32500;50.620;3.400;2023-08-08T04:31:09;82.40;;;52.13;;
46753;SDS011;32500;50.620;3.400;2023-08-08T04:33:34;82.40;;;52.17;;
46753;SDS011;32500;50.620;3.400;2023-08-08T04:36:00;84.25;;;52.25;;
46753;SDS011;32500;50.620;3.400;2023-08-08T04:38:25;82.75;;;52.25;;
46753;SDS011;32500;50.620;3.400;2023-08-08T04:40:51;81.63;;;52.33;;
46753;SDS011;32500;50.620;3.400;2023-08-08T04:43:17;84.35;;;52.38;;
46753;SDS011;32500;50.620;3.400;2023-08-08T04:45:42;80.15;;;51.90;;
46753;SDS011;32500;50.620;3.400;2023-08-08T04:48:08;81.90;;;52.28;;
46753;SDS011;32500;50.620;3.400;2023-08-08T04:50:33;81.43;;;52.22;;
46753;SDS011;32500;50.620;3.400;2023-08-08T04:52:59;83.15;;;52.15;;
46753;SDS011;32500;50.620;3.400;2023-08-08T04:55:24;84.53;;;52.85;;
46753;SDS011;32500;50.620;3.400;2023-08-08T04:57:50;83.20;;;52.33;;
46753;SDS011;32500;50.620;3.400;2023-08-08T05:00:16;83.82;;;52.50;;
46753;SDS011;32500;50.620;3.400;2023-08-08T05:02:42;83.20;;;52.70;;
46753;SDS011;32500;50.620;3.400;2023-08-08T05:05:09;83.18;;;52.28;;
46753;SDS011;32500;50.620;3.400;2023-08-08T05:07:34;81.38;;;52.28;;
46753;SDS011;32500;50.620;3.400;2023-08-08T05:10:05;83.47;;;52.17;;
46753;SDS011;32500;50.620;3.400;2023-08-08T05:12:34;81.70;;;52.05;;
46753;SDS011;32500;50.620;3.400;2023-08-08T05:14:59;81.18;;;52.03;;
46753;SDS011;32500;50.620;3.400;2023-08-08T05:17:25;85.03;;;52.30;;
46753;SDS011;32500;50.620;3.400;2023-08-08T05:19:51;81.90;;;52.30;;
46753;SDS011;32500;50.620;3.400;2023-08-08T05:22:16;81.35;;;52.13;;
46753;SDS011;32500;50.620;3.400;2023-08-08T05:24:42;82.07;;;52.25;;
46753;SDS011;32500;50.620;3.400;2023-08-08T05:27:07;80.93;;;52.13;;
46753;SDS011;32500;50.620;3.400;2023-08-08T05:29:34;82.68;;;52.42;;
46753;SDS011;32500;50.620;3.400;2023-08-08T05:32:03;81.72;;;52.45;;
46753;SDS011;32500;50.620;3.400;2023-08-08T05:34:31;81.30;;;52.22;;
46753;SDS011;32500;50.620;3.400;2023-08-08T05:36:57;83.13;;;52.38;;
46753;SDS011;32500;50.620;3.400;2023-08-08T05:39:23;86.00;;;52.72;;
46753;SDS011;32500;50.620;3.400;2023-08-08T05:41:48;82.75;;;52.55;;
46753;SDS011;32500;50.620;3.400;2023-08-08T05:44:14;83.68;;;52.97;;
46753;SDS011;32500;50.620;3.400;2023-08-08T05:46:39;82.18;;;52.70;;
46753;SDS011;32500;50.620;3.400;2023-08-08T05:49:05;83.93;;;52.53;;
46753;SDS011;32500;50.620;3.400;2023-08-08T05:51:31;81.47;;;52.45;;
46753;SDS011;32500;50.620;3.400;2023-08-08T05:53:57;86.25;;;52.75;;
46753;SDS011;32500;50.620;3.400;2023-08-08T05:56:23;83.00;;;52.72;;
46753;SDS011;32500;50.620;3.400;2023-08-08T05:58:48;82.82;;;52.47;;
46753;SDS011;32500;50.620;3.400;2023-08-08T06:01:14;82.45;;;52.35;;
46753;SDS011;32500;50.620;3.400;2023-08-08T06:03:39;85.43;;;52.53;;
46753;SDS011;32500;50.620;3.400;2023-08-08T06:06:05;83.07;;;52.78;;
46753;SDS011;32500;50.620;3.400;2023-08-08T06:08:31;86.28;;;52.90;;
46753;SDS011;32500;50.620;3.400;2023-08-08T06:10:57;84.50;;;52.85;;
46753;SDS011;32500;50.620;3.400;2023-08-08T06:13:23;85.43;;;53.38;;
46753;SDS011;32500;50.620;3.400;2023-08-08T06:15:48;82.88;;;52.75;;
46753;SDS011;32500;50.620;3.400;2023-08-08T06:18:14;83.82;;;52.85;;
46753;SDS011;32500;50.620;3.400;2023-08-08T06:20:41;82.38;;;52.65;;
46753;SDS011;32500;50.620;3.400;2023-08-08T06:23:06;81.82;;;52.22;;
46753;SDS011;32500;50.620;3.400;2023-08-08T06:25:32;83.85;;;52.33;;
46753;SDS011;32500;50.620;3.400;2023-08-08T06:27:57;84.05;;;52.83;;
46753;SDS011;32500;50.620;3.400;2023-08-08T06:30:23;86.32;;;52.60;;
46753;SDS011;32500;50.620;3.400;2023-08-08T06:32:49;81.82;;;52.38;;
46753;SDS011;32500;50.620;3.400;2023-08-08T06:35:14;82.35;;;52.75;;
46753;SDS011;32500;50.620;3.400;2023-08-08T06:37:41;84.88;;;52.95;;
46753;SDS011;32500;50.620;3.400;2023-08-08T06:40:08;85.35;;;53.00;;
46753;SDS011;32500;50.620;3.400;2023-08-08T06:42:35;85.40;;;53.13;;
46753;SDS011;32500;50.620;3.400;2023-08-08T06:45:01;82.70;;;52.33;;
46753;SDS011;32500;50.620;3.400;2023-08-08T06:47:27;84.70;;;53.17;;
46753;SDS011;32500;50.620;3.400;2023-08-08T06:49:52;86.25;;;53.25;;
46753;SDS011;32500;50.620;3.400;2023-08-08T06:52:18;86.30;;;53.42;;
46753;SDS011;32500;50.620;3.400;2023-08-08T06:54:43;86.32;;;52.75;;
46753;SDS011;32500;50.620;3.400;2023-08-08T06:57:09;85.78;;;53.75;;
46753;SDS011;32500;50.620;3.400;2023-08-08T06:59:34;84.60;;;52.80;;
46753;SDS011;32500;50.620;3.400;2023-08-08T07:02:00;88.70;;;54.22;;
46753;SDS011;32500;50.620;3.400;2023-08-08T07:04:26;90.05;;;53.58;;
46753;SDS011;32500;50.620;3.400;2023-08-08T07:06:51;90.53;;;54.70;;
46753;SDS011;32500;50.620;3.400;2023-08-08T07:09:17;88.35;;;53.75;;
46753;SDS011;32500;50.620;3.400;2023-08-08T07:11:43;88.45;;;54.40;;
46753;SDS011;32500;50.620;3.400;2023-08-08T07:14:09;88.00;;;53.80;;
46753;SDS011;32500;50.620;3.400;2023-08-08T07:16:34;91.32;;;54.30;;
46753;SDS011;32500;50.620;3.400;2023-08-08T07:19:00;88.47;;;54.55;;
46753;SDS011;32500;50.620;3.400;2023-08-08T07:21:25;91.18;;;54.10;;
46753;SDS011;32500;50.620;3.400;2023-08-08T07:23:51;87.70;;;53.90;;
46753;SDS011;32500;50.620;3.400;2023-08-08T07:26:17;90.18;;;54.00;;
46753;SDS011;32500;50.620;3.400;2023-08-08T07:28:42;88.15;;;53.75;;
46753;SDS011;32500;50.620;3.400;2023-08-08T07:31:08;89.70;;;53.80;;
46753;SDS011;32500;50.620;3.400;2023-08-08T07:33:34;90.00;;;54.10;;
46753;SDS011;32500;50.620;3.400;2023-08-08T07:35:59;87.32;;;53.38;;
46753;SDS011;32500;50.620;3.400;2023-08-08T07:38:25;87.60;;;53.35;;
46753;SDS011;32500;50.620;3.400;2023-08-08T07:40:50;86.95;;;53.70;;
46753;SDS011;32500;50.620;3.400;2023-08-08T07:43:16;87.35;;;53.75;;
46753;SDS011;32500;50.620;3.400;2023-08-08T07:45:42;89.85;;;53.45;;
46753;SDS011;32500;50.620;3.400;2023-08-08T07:48:08;87.95;;;53.97;;
46753;SDS011;32500;50.620;3.400;2023-08-08T07:50:33;88.70;;;54.08;;
46753;SDS011;32500;50.620;3.400;2023-08-08T07:52:59;87.10;;;53.05;;
46753;SDS011;32500;50.620;3.400;2023-08-08T07:55:24;85.80;;;53.47;;
46753;SDS011;32500;50.620;3.400;2023-08-08T07:57:51;87.88;;;53.45;;
46753;SDS011;32500;50.620;3.400;2023-08-08T08:00:17;88.32;;;53.65;;
46753;SDS011;32500;50.620;3.400;2023-08-08T08:02:44;84.93;;;53.28;;
46753;SDS011;32500;50.620;3.400;2023-08-08T08:05:10;87.70;;;53.45;;
46753;SDS011;32500;50.620;3.400;2023-08-08T08:07:37;91.00;;;53.30;;
46753;SDS011;32500;50.620;3.400;2023-08-08T08:10:03;86.95;;;53.28;;
46753;SDS011;32500;50.620;3.400;2023-08-08T08:12:30;85.43;;;52.88;;
46753;SDS011;32500;50.620;3.400;2023-08-08T08:14:57;86.68;;;53.33;;
46753;SDS011;32500;50.620;3.400;2023-08-08T08:17:23;85.47;;;53.28;;
46753;SDS011;32500;50.620;3.400;2023-08-08T08:19:50;86.47;;;53.13;;
46753;SDS011;32500;50.620;3.400;2023-08-08T08:22:16;84.38;;;53.28;;
46753;SDS011;32500;50.620;3.400;2023-08-08T08:24:42;85.80;;;53.03;;
46753;SDS011;32500;50.620;3.400;2023-08-08T08:27:07;86.30;;;53.33;;
46753;SDS011;32500;50.620;3.400;2023-08-08T08:29:33;84.57;;;52.95;;
46753;SDS011;32500;50.620;3.400;2023-08-08T08:31:59;83.97;;;52.90;;
46753;SDS011;32500;50.620;3.400;2023-08-08T08:34:25;84.72;;;53.15;;
46753;SDS011;32500;50.620;3.400;2023-08-08T08:36:50;84.50;;;53.05;;
46753;SDS011;32500;50.620;3.400;2023-08-08T08:39:16;85.35;;;52.95;;
46753;SDS011;32500;50.620;3.400;2023-08-08T08:41:41;87.32;;;53.20;;
46753;SDS011;32500;50.620;3.400;2023-08-08T08:44:12;84.90;;;53.08;;
46753;SDS011;32500;50.620;3.400;2023-08-08T08:46:39;83.22;;;52.75;;
46753;SDS011;32500;50.620;3.400;2023-08-08T08:49:05;84.68;;;52.72;;
46753;SDS011;32500;50.620;3.400;2023-08-08T08:51:33;86.47;;;53.40;;
46753;SDS011;32500;50.620;3.400;2023-08-08T08:54:00;85.05;;;52.97;;
46753;SDS011;32500;50.620;3.400;2023-08-08T08:56:26;88.80;;;53.08;;
46753;SDS011;32500;50.620;3.400;2023-08-08T08:58:52;85.45;;;52.85;;
46753;SDS011;32500;50.620;3.400;2023-08-08T09:01:17;87.28;;;53.25;;
46753;SDS011;32500;50.620;3.400;2023-08-08T09:03:44;90.80;;;53.65;;
46753;SDS011;32500;50.620;3.400;2023-08-08T09:06:10;86.53;;;53.28;;
46753;SDS011;32500;50.620;3.400;2023-08-08T09:08:37;88.05;;;53.80;;
46753;SDS011;32500;50.620;3.400;2023-08-08T09:11:03;86.95;;;53.33;;
46753;SDS011;32500;50.620;3.400;2023-08-08T09:13:33;87.60;;;53.55;;
46753;SDS011;32500;50.620;3.400;2023-08-08T09:16:04;87.43;;;53.38;;
46753;SDS011;32500;50.620;3.400;2023-08-08T09:18:33;85.57;;;53.47;;
46753;SDS011;32500;50.620;3.400;2023-08-08T09:21:03;89.03;;;53.40;;
46753;SDS011;32500;50.620;3.400;2023-08-08T09:23:29;88.75;;;53.90;;
46753;SDS011;32500;50.620;3.400;2023-08-08T09:25:55;88.80;;;53.55;;
46753;SDS011;32500;50.620;3.400;2023-08-08T09:28:20;85.45;;;53.00;;
46753;SDS011;32500;50.620;3.400;2023-08-08T09:30:46;86.68;;;53.03;;
46753;SDS011;32500;50.620;3.400;2023-08-08T09:33:12;84.15;;;52.40;;
46753;SDS011;32500;50.620;3.400;2023-08-08T09:35:38;87.45;;;52.78;;
46753;SDS011;32500;50.620;3.400;2023-08-08T09:38:04;86.03;;;52.85;;
46753;SDS011;32500;50.620;3.400;2023-08-08T09:40:30;84.40;;;53.05;;
46753;SDS011;32500;50.620;3.400;2023-08-08T09:42:56;85.97;;;53.30;;
46753;SDS011;32500;50.620;3.400;2023-08-08T09:45:22;85.32;;;53.20;;
46753;SDS011;32500;50.620;3.400;2023-08-08T09:47:49;83.97;;;52.85;;
46753;SDS011;32500;50.620;3.400;2023-08-08T09:50:15;85.93;;;52.85;;
46753;SDS011;32500;50.620;3.400;2023-08-08T09:52:43;85.68;;;52.50;;
46753;SDS011;32500;50.620;3.400;2023-08-08T09:55:10;83.68;;;52.42;;
46753;SDS011;32500;50.620;3.400;2023-08-08T09:57:37;83.85;;;52.63;;
46753;SDS011;32500;50.620;3.400;2023-08-08T10:00:04;85.22;;;52.75;;
46753;SDS011;32500;50.620;3.400;2023-08-08T10:02:41;83.35;;;52.53;;
46753;SDS011;32500;50.620;3.400;2023-08-08T10:05:10;83.30;;;52.67;;
46753;SDS011;32500;50.620;3.400;2023-08-08T10:07:38;84.70;;;52.65;;
46753;SDS011;32500;50.620;3.400;2023-08-08T10:10:06;84.80;;;52.92;;
46753;SDS011;32500;50.620;3.400;2023-08-08T10:12:33;85.00;;;53.15;;
46753;SDS011;32500;50.620;3.400;2023-08-08T10:14:59;84.95;;;52.95;;
46753;SDS011;32500;50.620;3.400;2023-08-08T10:17:25;85.65;;;52.70;;
46753;SDS011;32500;50.620;3.400;2023-08-08T10:19:53;84.40;;;53.03;;
46753;SDS011;32500;50.620;3.400;2023-08-08T10:22:21;84.18;;;53.22;;
46753;SDS011;32500;50.620;3.400;2023-08-08T10:24:51;83.50;;;52.83;;
46753;SDS011;32500;50.620;3.400;2023-08-08T10:27:28;84.97;;;53.00;;
46753;SDS011;32500;50.620;3.400;2023-08-08T10:30:04;86.63;;;53.05;;
46753;SDS011;32500;50.620;3.400;2023-08-08T10:32:43;84.90;;;53.22;;
46753;SDS011;32500;50.620;3.400;2023-08-08T10:35:11;86.88;;;53.63;;
46753;SDS011;32500;50.620;3.400;2023-08-08T10:37:37;85.07;;;53.30;;
46753;SDS011;32500;50.620;3.400;2023-08-08T10:40:04;85.95;;;53.45;;
46753;SDS011;32500;50.620;3.400;2023-08-08T10:42:32;85.60;;;53.10;;
46753;SDS011;32500;50.620;3.400;2023-08-08T10:45:08;86.03;;;52.83;;
46753;SDS011;32500;50.620;3.400;2023-08-08T10:47:41;84.63;;;53.10;;
46753;SDS011;32500;50.620;3.400;2023-08-08T10:50:11;84.30;;;53.13;;
46753;SDS011;32500;50.620;3.400;2023-08-08T11:00:33;84.00;;;53.00;;
46753;SDS011;32500;50.620;3.400;2023-08-08T11:03:01;84.35;;;53.03;;
46753;SDS011;32500;50.620;3.400;2023-08-08T11:05:30;85.53;;;53.35;;
46753;SDS011;32500;50.620;3.400;2023-08-08T11:07:57;88.05;;;53.22;;
46753;SDS011;32500;50.620;3.400;2023-08-08T11:10:23;85.40;;;53.38;;
46753;SDS011;32500;50.620;3.400;2023-08-08T11:13:02;85.28;;;53.17;;
46753;SDS011;32500;50.620;3.400;2023-08-08T11:15:29;85.40;;;53.40;;
46753;SDS011;32500;50.620;3.400;2023-08-08T11:17:58;86.63;;;53.20;;
46753;SDS011;32500;50.620;3.400;2023-08-08T11:20:29;86.75;;;53.20;;
46753;SDS011;32500;50.620;3.400;2023-08-08T11:22:56;84.93;;;53.40;;
46753;SDS011;32500;50.620;3.400;2023-08-08T11:25:25;86.93;;;53.55;;
46753;SDS011;32500;50.620;3.400;2023-08-08T11:27:52;84.93;;;53.33;;
46753;SDS011;32500;50.620;3.400;2023-08-08T11:30:19;85.18;;;53.47;;
46753;SDS011;32500;50.620;3.400;2023-08-08T11:32:46;85.80;;;53.22;;
46753;SDS011;32500;50.620;3.400;2023-08-08T11:35:20;86.35;;;53.72;;
46753;SDS011;32500;50.620;3.400;2023-08-08T11:37:47;85.68;;;53.40;;
46753;SDS011;32500;50.620;3.400;2023-08-08T11:40:14;86.65;;;53.67;;
46753;SDS011;32500;50.620;3.400;2023-08-08T11:42:41;88.30;;;53.47;;
46753;SDS011;32500;50.620;3.400;2023-08-08T11:45:10;85.45;;;53.58;;
46753;SDS011;32500;50.620;3.400;2023-08-08T11:47:37;86.18;;;53.72;;
46753;SDS011;32500;50.620;3.400;2023-08-08T11:50:06;86.22;;;53.80;;
46753;SDS011;32500;50.620;3.400;2023-08-08T11:52:40;86.05;;;53.85;;
46753;SDS011;32500;50.620;3.400;2023-08-08T11:55:07;86.68;;;54.08;;
46753;SDS011;32500;50.620;3.400;2023-08-08T11:57:37;87.00;;;54.17;;
46753;SDS011;32500;50.620;3.400;2023-08-08T12:00:07;88.30;;;54.25;;
46753;SDS011;32500;50.620;3.400;2023-08-08T12:02:36;86.93;;;53.95;;
46753;SDS011;32500;50.620;3.400;2023-08-08T12:05:08;87.65;;;53.90;;
46753;SDS011;32500;50.620;3.400;2023-08-08T12:07:36;87.20;;;53.53;;
46753;SDS011;32500;50.620;3.400;2023-08-08T12:10:03;85.35;;;53.40;;
46753;SDS011;32500;50.620;3.400;2023-08-08T12:12:31;86.93;;;53.67;;
46753;SDS011;32500;50.620;3.400;2023-08-08T12:15:03;85.45;;;53.63;;
46753;SDS011;32500;50.620;3.400;2023-08-08T12:17:31;87.05;;;53.85;;
46753;SDS011;32500;50.620;3.400;2023-08-08T12:20:00;85.68;;;53.65;;
46753;SDS011;32500;50.620;3.400;2023-08-08T12:22:28;85.32;;;53.55;;
46753;SDS011;32500;50.620;3.400;2023-08-08T12:24:54;85.65;;;53.67;;
46753;SDS011;32500;50.620;3.400;2023-08-08T12:27:20;86.43;;;53.97;;
46753;SDS011;32500;50.620;3.400;2023-08-08T12:29:45;86.25;;;53.58;;
46753;SDS011;32500;50.620;3.400;2023-08-08T12:32:11;86.10;;;53.75;;
46753;SDS011;32500;50.620;3.400;2023-08-08T12:34:37;86.20;;;53.70;;
46753;SDS011;32500;50.620;3.400;2023-08-08T12:37:02;86.38;;;53.85;;
46753;SDS011;32500;50.620;3.400;2023-08-08T12:39:28;86.53;;;53.80;;
46753;SDS011;32500;50.620;3.400;2023-08-08T12:41:54;85.65;;;53.42;;
46753;SDS011;32500;50.620;3.400;2023-08-08T12:44:21;86.05;;;53.72;;
46753;SDS011;32500;50.620;3.400;2023-08-08T12:46:47;87.07;;;53.67;;
46753;SDS011;32500;50.620;3.400;2023-08-08T12:49:12;85.63;;;53.40;;
46753;SDS011;32500;50.620;3.400;2023-08-08T12:51:38;85.95;;;53.42;;
46753;SDS011;32500;50.620;3.400;2023-08-08T12:54:03;85.35;;;53.50;;
46753;SDS011;32500;50.620;3.400;2023-08-08T12:56:29;87.78;;;53.70;;
46753;SDS011;32500;50.620;3.400;2023-08-08T12:58:55;85.28;;;53.50;;
46753;SDS011;32500;50.620;3.400;2023-08-08T13:01:20;86.30;;;53.75;;
46753;SDS011;32500;50.620;3.400;2023-08-08T13:03:46;86.15;;;53.83;;
46753;SDS011;32500;50.620;3.400;2023-08-08T13:06:12;85.85;;;53.65;;
46753;SDS011;32500;50.620;3.400;2023-08-08T13:08:38;86.22;;;53.53;;
46753;SDS011;32500;50.620;3.400;2023-08-08T13:11:04;85.72;;;53.45;;
46753;SDS011;32500;50.620;3.400;2023-08-08T13:13:30;85.82;;;53.45;;
46753;SDS011;32500;50.620;3.400;2023-08-08T13:15:56;85.95;;;53.42;;
46753;SDS011;32500;50.620;3.400;2023-08-08T13:18:22;86.32;;;53.58;;
46753;SDS011;32500;50.620;3.400;2023-08-08T13:20:47;87.63;;;53.60;;
46753;SDS011;32500;50.620;3.400;2023-08-08T13:23:13;86.20;;;53.60;;
46753;SDS011;32500;50.620;3.400;2023-08-08T13:25:39;86.90;;;53.72;;
46753;SDS011;32500;50.620;3.400;2023-08-08T13:28:06;85.82;;;53.65;;
46753;SDS011;32500;50.620;3.400;2023-08-08T13:30:32;86.95;;;53.53;;
46753;SDS011;32500;50.620;3.400;2023-08-08T13:32:59;87.45;;;54.03;;
46753;SDS011;32500;50.620;3.400;2023-08-08T13:35:24;88.50;;;54.05;;
46753;SDS011;32500;50.620;3.400;2023-08-08T13:37:50;87.43;;;54.15;;
46753;SDS011;32500;50.620;3.400;2023-08-08T13:40:17;86.38;;;53.78;;
46753;SDS011;32500;50.620;3.400;2023-08-08T13:42:43;86.65;;;54.08;;
46753;SDS011;32500;50.620;3.400;2023-08-08T13:45:12;86.80;;;54.15;;
46753;SDS011;32500;50.620;3.400;2023-08-08T13:47:42;86.25;;;53.83;;
46753;SDS011;32500;50.620;3.400;2023-08-08T13:50:08;87.35;;;53.80;;
46753;SDS011;32500;50.620;3.400;2023-08-08T13:52:34;86.28;;;53.83;;
46753;SDS011;32500;50.620;3.400;2023-08-08T13:54:59;88.03;;;53.75;;
46753;SDS011;32500;50.620;3.400;2023-08-08T13:57:25;87.05;;;53.70;;
46753;SDS011;32500;50.620;3.400;2023-08-08T13:59:51;86.28;;;53.72;;
46753;SDS011;32500;50.620;3.400;2023-08-08T14:02:16;85.35;;;53.78;;
46753;SDS011;32500;50.620;3.400;2023-08-08T14:04:43;85.07;;;53.38;;
46753;SDS011;32500;50.620;3.400;2023-08-08T14:07:09;84.82;;;53.58;;
46753;SDS011;32500;50.620;3.400;2023-08-08T14:09:35;84.78;;;53.50;;
46753;SDS011;32500;50.620;3.400;2023-08-08T14:12:01;85.05;;;53.35;;
46753;SDS011;32500;50.620;3.400;2023-08-08T14:14:27;85.13;;;53.35;;
46753;SDS011;32500;50.620;3.400;2023-08-08T14:16:52;86.97;;;53.50;;
46753;SDS011;32500;50.620;3.400;2023-08-08T14:19:18;85.38;;;53.55;;
46753;SDS011;32500;50.620;3.400;2023-08-08T14:21:44;86.45;;;53.75;;
46753;SDS011;32500;50.620;3.400;2023-08-08T14:24:10;85.60;;;53.45;;
46753;SDS011;32500;50.620;3.400;2023-08-08T14:26:35;85.30;;;53.60;;
46753;SDS011;32500;50.620;3.400;2023-08-08T14:29:01;85.47;;;53.80;;